sensor_id;sensor_type;location;lat;lon;timestamp;P1;durP1;ratioP1;P2;durP2;ratioP2
17566;SDS011;8901;52.088;5.084;2023-12-20T00:02:18;16.83;;;15.43;;
17566;SDS011;8901;52.088;5.084;2023-12-20T00:04:45;17.37;;;15.67;;
17566;SDS011;8901;52.088;5.084;2023-12-20T00:07:13;17.70;;;16.07;;
17566;SDS011;8901;52.088;5.084;2023-12-20T00:09:40;17.57;;;15.50;;
17566;SDS011;8901;52.088;5.084;2023-12-20T00:12:09;14.90;;;13.40;;
17566;SDS011;8901;52.088;5.084;2023-12-20T00:14:36;15.00;;;13.60;;
17566;SDS011;8901;52.088;5.084;2023-12-20T00:17:03;16.53;;;14.97;;
17566;SDS011;8901;52.088;5.084;2023-12-20T00:19:31;15.10;;;13.70;;
17566;SDS011;8901;52.088;5.084;2023-12-20T00:21:58;13.90;;;12.50;;
17566;SDS011;8901;52.088;5.084;2023-12-20T00:24:25;14.50;;;13.30;;
17566;SDS011;8901;52.088;5.084;2023-12-20T00:26:52;16.07;;;14.67;;
17566;SDS011;8901;52.088;5.084;2023-12-20T00:29:21;17.80;;;15.90;;
17566;SDS011;8901;52.088;5.084;2023-12-20T00:31:48;15.23;;;13.97;;
17566;SDS011;8901;52.088;5.084;2023-12-20T00:34:15;15.63;;;14.03;;
17566;SDS011;8901;52.088;5.084;2023-12-20T00:36:42;16.10;;;14.20;;
17566;SDS011;8901;52.088;5.084;2023-12-20T00:39:09;16.63;;;15.17;;
17566;SDS011;8901;52.088;5.084;2023-12-20T00:41:37;16.43;;;15.07;;
17566;SDS011;8901;52.088;5.084;2023-12-20T00:44:04;17.73;;;16.50;;
17566;SDS011;8901;52.088;5.084;2023-12-20T00:46:33;18.13;;;16.60;;
17566;SDS011;8901;52.088;5.084;2023-12-20T00:49:00;19.60;;;17.70;;
17566;SDS011;8901;52.088;5.084;2023-12-20T00:51:27;20.33;;;18.43;;
17566;SDS011;8901;52.088;5.084;2023-12-20T00:53:54;17.63;;;16.13;;
17566;SDS011;8901;52.088;5.084;2023-12-20T00:56:21;19.83;;;17.90;;
17566;SDS011;8901;52.088;5.084;2023-12-20T00:58:49;20.17;;;18.40;;
17566;SDS011;8901;52.088;5.084;2023-12-20T01:01:16;19.73;;;18.23;;
17566;SDS011;8901;52.088;5.084;2023-12-20T01:03:45;16.40;;;14.77;;
17566;SDS011;8901;52.088;5.084;2023-12-20T01:06:12;18.77;;;17.17;;
17566;SDS011;8901;52.088;5.084;2023-12-20T01:08:39;17.13;;;15.57;;
17566;SDS011;8901;52.088;5.084;2023-12-20T01:11:06;20.10;;;18.40;;
17566;SDS011;8901;52.088;5.084;2023-12-20T01:13:33;17.60;;;16.23;;
17566;SDS011;8901;52.088;5.084;2023-12-20T01:16:00;19.07;;;17.23;;
17566;SDS011;8901;52.088;5.084;2023-12-20T01:18:28;20.37;;;18.33;;
17566;SDS011;8901;52.088;5.084;2023-12-20T01:20:56;18.73;;;17.03;;
17566;SDS011;8901;52.088;5.084;2023-12-20T01:23:28;21.00;;;18.80;;
17566;SDS011;8901;52.088;5.084;2023-12-20T01:25:55;20.57;;;18.83;;
17566;SDS011;8901;52.088;5.084;2023-12-20T01:28:24;21.80;;;20.20;;
17566;SDS011;8901;52.088;5.084;2023-12-20T01:30:51;23.57;;;21.77;;
17566;SDS011;8901;52.088;5.084;2023-12-20T01:33:18;23.40;;;21.40;;
17566;SDS011;8901;52.088;5.084;2023-12-20T01:35:45;24.30;;;22.20;;
17566;SDS011;8901;52.088;5.084;2023-12-20T01:38:14;22.23;;;20.37;;
17566;SDS011;8901;52.088;5.084;2023-12-20T01:40:43;20.90;;;19.27;;
17566;SDS011;8901;52.088;5.084;2023-12-20T01:43:10;22.67;;;20.60;;
17566;SDS011;8901;52.088;5.084;2023-12-20T01:45:38;20.60;;;18.87;;
17566;SDS011;8901;52.088;5.084;2023-12-20T01:48:05;22.90;;;20.90;;
17566;SDS011;8901;52.088;5.084;2023-12-20T01:50:33;22.13;;;20.23;;
17566;SDS011;8901;52.088;5.084;2023-12-20T01:53:02;23.27;;;20.87;;
17566;SDS011;8901;52.088;5.084;2023-12-20T01:55:33;23.83;;;21.83;;
17566;SDS011;8901;52.088;5.084;2023-12-20T01:58:01;24.20;;;22.03;;
17566;SDS011;8901;52.088;5.084;2023-12-20T02:00:29;27.80;;;25.47;;
17566;SDS011;8901;52.088;5.084;2023-12-20T02:02:57;25.57;;;23.57;;
17566;SDS011;8901;52.088;5.084;2023-12-20T02:05:27;21.80;;;19.80;;
17566;SDS011;8901;52.088;5.084;2023-12-20T02:07:54;25.70;;;23.33;;
17566;SDS011;8901;52.088;5.084;2023-12-20T02:10:21;21.30;;;19.53;;
17566;SDS011;8901;52.088;5.084;2023-12-20T02:12:50;21.77;;;19.97;;
17566;SDS011;8901;52.088;5.084;2023-12-20T02:15:17;21.03;;;19.37;;
17566;SDS011;8901;52.088;5.084;2023-12-20T02:17:45;23.40;;;21.70;;
17566;SDS011;8901;52.088;5.084;2023-12-20T02:20:13;26.23;;;23.83;;
17566;SDS011;8901;52.088;5.084;2023-12-20T02:22:42;27.70;;;25.07;;
17566;SDS011;8901;52.088;5.084;2023-12-20T02:25:09;26.07;;;23.80;;
17566;SDS011;8901;52.088;5.084;2023-12-20T02:27:36;25.27;;;22.87;;
17566;SDS011;8901;52.088;5.084;2023-12-20T02:30:03;25.67;;;23.50;;
17566;SDS011;8901;52.088;5.084;2023-12-20T02:32:31;26.93;;;24.73;;
17566;SDS011;8901;52.088;5.084;2023-12-20T02:34:58;26.37;;;24.03;;
17566;SDS011;8901;52.088;5.084;2023-12-20T02:37:25;27.77;;;25.20;;
17566;SDS011;8901;52.088;5.084;2023-12-20T02:39:53;26.83;;;24.67;;
17566;SDS011;8901;52.088;5.084;2023-12-20T02:42:20;28.33;;;25.83;;
17566;SDS011;8901;52.088;5.084;2023-12-20T02:44:48;27.53;;;25.17;;
17566;SDS011;8901;52.088;5.084;2023-12-20T02:47:15;28.93;;;26.37;;
17566;SDS011;8901;52.088;5.084;2023-12-20T02:49:41;26.43;;;24.10;;
17566;SDS011;8901;52.088;5.084;2023-12-20T02:52:08;25.83;;;23.60;;
17566;SDS011;8901;52.088;5.084;2023-12-20T02:54:35;26.63;;;24.30;;
17566;SDS011;8901;52.088;5.084;2023-12-20T02:57:04;23.67;;;21.50;;
17566;SDS011;8901;52.088;5.084;2023-12-20T02:59:31;23.97;;;22.00;;
17566;SDS011;8901;52.088;5.084;2023-12-20T03:01:58;23.87;;;21.73;;
17566;SDS011;8901;52.088;5.084;2023-12-20T03:04:25;24.60;;;22.50;;
17566;SDS011;8901;52.088;5.084;2023-12-20T03:06:53;23.37;;;21.70;;
17566;SDS011;8901;52.088;5.084;2023-12-20T03:09:20;27.43;;;25.17;;
17566;SDS011;8901;52.088;5.084;2023-12-20T03:11:47;27.23;;;24.87;;
17566;SDS011;8901;52.088;5.084;2023-12-20T03:14:16;27.13;;;24.83;;
17566;SDS011;8901;52.088;5.084;2023-12-20T03:16:46;28.10;;;25.83;;
17566;SDS011;8901;52.088;5.084;2023-12-20T03:19:13;24.33;;;22.50;;
17566;SDS011;8901;52.088;5.084;2023-12-20T03:21:41;25.80;;;23.57;;
17566;SDS011;8901;52.088;5.084;2023-12-20T03:24:08;25.27;;;23.37;;
17566;SDS011;8901;52.088;5.084;2023-12-20T03:26:35;26.10;;;23.80;;
17566;SDS011;8901;52.088;5.084;2023-12-20T03:29:02;25.77;;;23.67;;
17566;SDS011;8901;52.088;5.084;2023-12-20T03:31:31;32.27;;;29.13;;
17566;SDS011;8901;52.088;5.084;2023-12-20T03:33:58;28.17;;;25.27;;
17566;SDS011;8901;52.088;5.084;2023-12-20T03:36:25;30.40;;;27.53;;
17566;SDS011;8901;52.088;5.084;2023-12-20T03:38:51;29.33;;;26.93;;
17566;SDS011;8901;52.088;5.084;2023-12-20T03:41:18;24.83;;;22.63;;
17566;SDS011;8901;52.088;5.084;2023-12-20T03:43:45;26.33;;;24.27;;
17566;SDS011;8901;52.088;5.084;2023-12-20T03:46:12;28.03;;;25.80;;
17566;SDS011;8901;52.088;5.084;2023-12-20T03:48:41;21.57;;;19.70;;
17566;SDS011;8901;52.088;5.084;2023-12-20T03:51:08;26.03;;;22.17;;
17566;SDS011;8901;52.088;5.084;2023-12-20T03:53:35;24.40;;;22.30;;
17566;SDS011;8901;52.088;5.084;2023-12-20T03:56:03;26.20;;;23.77;;
17566;SDS011;8901;52.088;5.084;2023-12-20T03:58:30;21.17;;;19.27;;
17566;SDS011;8901;52.088;5.084;2023-12-20T04:00:57;25.10;;;22.43;;
17566;SDS011;8901;52.088;5.084;2023-12-20T04:03:24;23.93;;;21.77;;
17566;SDS011;8901;52.088;5.084;2023-12-20T04:05:52;24.93;;;22.83;;
17566;SDS011;8901;52.088;5.084;2023-12-20T04:08:19;25.97;;;23.50;;
17566;SDS011;8901;52.088;5.084;2023-12-20T04:10:47;23.47;;;21.50;;
17566;SDS011;8901;52.088;5.084;2023-12-20T04:13:14;25.20;;;22.97;;
17566;SDS011;8901;52.088;5.084;2023-12-20T04:15:41;25.97;;;23.90;;
17566;SDS011;8901;52.088;5.084;2023-12-20T04:18:08;23.77;;;21.43;;
17566;SDS011;8901;52.088;5.084;2023-12-20T04:20:35;26.00;;;23.40;;
17566;SDS011;8901;52.088;5.084;2023-12-20T04:23:04;26.00;;;23.73;;
17566;SDS011;8901;52.088;5.084;2023-12-20T04:25:31;23.07;;;20.87;;
17566;SDS011;8901;52.088;5.084;2023-12-20T04:27:58;23.20;;;21.50;;
17566;SDS011;8901;52.088;5.084;2023-12-20T04:30:25;24.87;;;22.47;;
17566;SDS011;8901;52.088;5.084;2023-12-20T04:32:53;24.73;;;22.13;;
17566;SDS011;8901;52.088;5.084;2023-12-20T04:35:20;24.90;;;22.40;;
17566;SDS011;8901;52.088;5.084;2023-12-20T04:37:47;25.17;;;22.60;;
17566;SDS011;8901;52.088;5.084;2023-12-20T04:40:17;23.47;;;21.37;;
17566;SDS011;8901;52.088;5.084;2023-12-20T04:42:44;23.17;;;21.30;;
17566;SDS011;8901;52.088;5.084;2023-12-20T04:45:11;22.90;;;21.03;;
17566;SDS011;8901;52.088;5.084;2023-12-20T04:47:41;21.23;;;19.70;;
17566;SDS011;8901;52.088;5.084;2023-12-20T04:50:08;23.97;;;21.87;;
17566;SDS011;8901;52.088;5.084;2023-12-20T04:52:38;24.73;;;22.57;;
17566;SDS011;8901;52.088;5.084;2023-12-20T04:55:05;24.00;;;21.63;;
17566;SDS011;8901;52.088;5.084;2023-12-20T04:57:35;24.07;;;21.97;;
17566;SDS011;8901;52.088;5.084;2023-12-20T05:00:02;24.17;;;21.87;;
17566;SDS011;8901;52.088;5.084;2023-12-20T05:02:29;28.57;;;26.20;;
17566;SDS011;8901;52.088;5.084;2023-12-20T05:04:57;28.07;;;25.63;;
17566;SDS011;8901;52.088;5.084;2023-12-20T05:07:24;26.60;;;23.47;;
17566;SDS011;8901;52.088;5.084;2023-12-20T05:09:51;26.30;;;24.07;;
17566;SDS011;8901;52.088;5.084;2023-12-20T05:12:18;26.20;;;23.67;;
17566;SDS011;8901;52.088;5.084;2023-12-20T05:14:47;28.43;;;25.80;;
17566;SDS011;8901;52.088;5.084;2023-12-20T05:17:14;24.83;;;22.40;;
17566;SDS011;8901;52.088;5.084;2023-12-20T05:19:41;24.80;;;22.63;;
17566;SDS011;8901;52.088;5.084;2023-12-20T05:22:08;25.67;;;23.37;;
17566;SDS011;8901;52.088;5.084;2023-12-20T05:24:35;25.33;;;23.03;;
17566;SDS011;8901;52.088;5.084;2023-12-20T05:27:03;24.13;;;22.03;;
17566;SDS011;8901;52.088;5.084;2023-12-20T05:29:30;25.77;;;23.17;;
17566;SDS011;8901;52.088;5.084;2023-12-20T05:31:59;23.73;;;21.77;;
17566;SDS011;8901;52.088;5.084;2023-12-20T05:34:26;23.43;;;21.27;;
17566;SDS011;8901;52.088;5.084;2023-12-20T05:36:53;21.00;;;19.10;;
17566;SDS011;8901;52.088;5.084;2023-12-20T05:39:21;21.87;;;20.13;;
17566;SDS011;8901;52.088;5.084;2023-12-20T05:41:48;25.67;;;21.20;;
17566;SDS011;8901;52.088;5.084;2023-12-20T05:44:15;21.80;;;19.83;;
17566;SDS011;8901;52.088;5.084;2023-12-20T05:46:41;23.53;;;21.27;;
17566;SDS011;8901;52.088;5.084;2023-12-20T05:49:10;24.00;;;21.47;;
17566;SDS011;8901;52.088;5.084;2023-12-20T05:51:37;21.20;;;19.50;;
17566;SDS011;8901;52.088;5.084;2023-12-20T05:54:04;21.90;;;19.97;;
17566;SDS011;8901;52.088;5.084;2023-12-20T05:56:31;24.47;;;22.30;;
17566;SDS011;8901;52.088;5.084;2023-12-20T05:58:58;22.43;;;20.37;;
17566;SDS011;8901;52.088;5.084;2023-12-20T06:01:26;24.47;;;22.17;;
17566;SDS011;8901;52.088;5.084;2023-12-20T06:03:53;22.80;;;20.43;;
17566;SDS011;8901;52.088;5.084;2023-12-20T06:06:21;21.33;;;19.20;;
17566;SDS011;8901;52.088;5.084;2023-12-20T06:08:49;21.87;;;19.83;;
17566;SDS011;8901;52.088;5.084;2023-12-20T06:11:16;21.53;;;19.50;;
17566;SDS011;8901;52.088;5.084;2023-12-20T06:13:43;22.77;;;20.57;;
17566;SDS011;8901;52.088;5.084;2023-12-20T06:16:10;19.40;;;17.70;;
17566;SDS011;8901;52.088;5.084;2023-12-20T06:18:37;18.70;;;17.00;;
17566;SDS011;8901;52.088;5.084;2023-12-20T06:21:04;22.07;;;19.97;;
17566;SDS011;8901;52.088;5.084;2023-12-20T06:23:34;22.60;;;20.40;;
17566;SDS011;8901;52.088;5.084;2023-12-20T06:26:01;18.73;;;17.30;;
17566;SDS011;8901;52.088;5.084;2023-12-20T06:28:29;22.70;;;20.33;;
17566;SDS011;8901;52.088;5.084;2023-12-20T06:30:56;19.37;;;17.40;;
17566;SDS011;8901;52.088;5.084;2023-12-20T06:33:23;19.43;;;17.63;;
17566;SDS011;8901;52.088;5.084;2023-12-20T06:35:50;18.97;;;16.97;;
17566;SDS011;8901;52.088;5.084;2023-12-20T06:38:17;24.57;;;22.37;;
17566;SDS011;8901;52.088;5.084;2023-12-20T06:40:46;23.57;;;21.27;;
17566;SDS011;8901;52.088;5.084;2023-12-20T06:43:14;26.50;;;23.90;;
17566;SDS011;8901;52.088;5.084;2023-12-20T06:45:41;22.40;;;20.70;;
17566;SDS011;8901;52.088;5.084;2023-12-20T06:48:08;22.90;;;20.77;;
17566;SDS011;8901;52.088;5.084;2023-12-20T06:50:37;22.43;;;20.60;;
17566;SDS011;8901;52.088;5.084;2023-12-20T06:53:05;24.60;;;22.30;;
17566;SDS011;8901;52.088;5.084;2023-12-20T06:55:33;27.00;;;24.27;;
17566;SDS011;8901;52.088;5.084;2023-12-20T06:58:02;22.80;;;20.87;;
17566;SDS011;8901;52.088;5.084;2023-12-20T07:00:29;25.53;;;23.20;;
17566;SDS011;8901;52.088;5.084;2023-12-20T07:02:57;25.70;;;23.50;;
17566;SDS011;8901;52.088;5.084;2023-12-20T07:05:24;25.73;;;23.30;;
17566;SDS011;8901;52.088;5.084;2023-12-20T07:07:51;26.60;;;24.20;;
17566;SDS011;8901;52.088;5.084;2023-12-20T07:10:19;28.80;;;26.00;;
17566;SDS011;8901;52.088;5.084;2023-12-20T07:12:46;23.90;;;21.70;;
17566;SDS011;8901;52.088;5.084;2023-12-20T07:15:16;25.77;;;23.33;;
17566;SDS011;8901;52.088;5.084;2023-12-20T07:17:43;24.37;;;22.23;;
17566;SDS011;8901;52.088;5.084;2023-12-20T07:20:11;24.30;;;22.00;;
17566;SDS011;8901;52.088;5.084;2023-12-20T07:22:38;23.13;;;20.73;;
17566;SDS011;8901;52.088;5.084;2023-12-20T07:25:06;22.60;;;20.50;;
17566;SDS011;8901;52.088;5.084;2023-12-20T07:27:33;21.87;;;20.00;;
17566;SDS011;8901;52.088;5.084;2023-12-20T07:30:00;22.20;;;19.80;;
17566;SDS011;8901;52.088;5.084;2023-12-20T07:32:29;19.27;;;17.50;;
17566;SDS011;8901;52.088;5.084;2023-12-20T07:34:57;22.07;;;18.77;;
17566;SDS011;8901;52.088;5.084;2023-12-20T07:37:24;22.67;;;20.13;;
17566;SDS011;8901;52.088;5.084;2023-12-20T07:39:51;18.97;;;16.93;;
17566;SDS011;8901;52.088;5.084;2023-12-20T07:42:18;19.73;;;17.77;;
17566;SDS011;8901;52.088;5.084;2023-12-20T07:44:47;21.40;;;19.17;;
17566;SDS011;8901;52.088;5.084;2023-12-20T07:47:14;25.93;;;19.97;;
17566;SDS011;8901;52.088;5.084;2023-12-20T07:49:45;19.53;;;17.40;;
17566;SDS011;8901;52.088;5.084;2023-12-20T07:52:12;20.20;;;18.03;;
17566;SDS011;8901;52.088;5.084;2023-12-20T07:54:39;20.03;;;17.93;;
17566;SDS011;8901;52.088;5.084;2023-12-20T07:57:07;19.83;;;17.07;;
17566;SDS011;8901;52.088;5.084;2023-12-20T07:59:35;20.27;;;18.33;;
17566;SDS011;8901;52.088;5.084;2023-12-20T08:02:02;18.97;;;17.40;;
17566;SDS011;8901;52.088;5.084;2023-12-20T08:04:30;21.20;;;17.70;;
17566;SDS011;8901;52.088;5.084;2023-12-20T08:06:59;19.63;;;17.73;;
17566;SDS011;8901;52.088;5.084;2023-12-20T08:09:26;23.23;;;17.30;;
17566;SDS011;8901;52.088;5.084;2023-12-20T08:11:53;20.07;;;15.57;;
17566;SDS011;8901;52.088;5.084;2023-12-20T08:14:20;20.87;;;16.63;;
17566;SDS011;8901;52.088;5.084;2023-12-20T08:16:47;18.73;;;17.13;;
17566;SDS011;8901;52.088;5.084;2023-12-20T08:19:14;22.57;;;17.43;;
17566;SDS011;8901;52.088;5.084;2023-12-20T08:21:42;19.23;;;16.17;;
17566;SDS011;8901;52.088;5.084;2023-12-20T08:24:10;20.53;;;15.70;;
17566;SDS011;8901;52.088;5.084;2023-12-20T08:26:37;20.17;;;16.50;;
17566;SDS011;8901;52.088;5.084;2023-12-20T08:29:04;18.67;;;16.47;;
17566;SDS011;8901;52.088;5.084;2023-12-20T08:31:32;18.20;;;16.27;;
17566;SDS011;8901;52.088;5.084;2023-12-20T08:33:59;18.77;;;16.70;;
17566;SDS011;8901;52.088;5.084;2023-12-20T08:36:26;20.73;;;16.70;;
17566;SDS011;8901;52.088;5.084;2023-12-20T08:38:53;20.63;;;17.83;;
17566;SDS011;8901;52.088;5.084;2023-12-20T08:41:22;18.80;;;16.93;;
17566;SDS011;8901;52.088;5.084;2023-12-20T08:43:49;17.87;;;15.93;;
17566;SDS011;8901;52.088;5.084;2023-12-20T08:46:16;17.47;;;15.80;;
17566;SDS011;8901;52.088;5.084;2023-12-20T08:48:43;21.07;;;15.60;;
17566;SDS011;8901;52.088;5.084;2023-12-20T08:51:10;22.50;;;17.67;;
17566;SDS011;8901;52.088;5.084;2023-12-20T08:53:37;20.37;;;14.63;;
17566;SDS011;8901;52.088;5.084;2023-12-20T08:56:04;15.53;;;14.07;;
17566;SDS011;8901;52.088;5.084;2023-12-20T08:58:33;16.77;;;15.30;;
17566;SDS011;8901;52.088;5.084;2023-12-20T09:01:01;22.73;;;15.33;;
17566;SDS011;8901;52.088;5.084;2023-12-20T09:03:28;14.60;;;13.10;;
17566;SDS011;8901;52.088;5.084;2023-12-20T09:05:55;17.10;;;14.97;;
17566;SDS011;8901;52.088;5.084;2023-12-20T09:08:22;17.50;;;14.40;;
17566;SDS011;8901;52.088;5.084;2023-12-20T09:10:49;18.57;;;15.10;;
17566;SDS011;8901;52.088;5.084;2023-12-20T09:13:17;18.10;;;16.23;;
17566;SDS011;8901;52.088;5.084;2023-12-20T09:15:45;18.77;;;16.07;;
17566;SDS011;8901;52.088;5.084;2023-12-20T09:18:12;18.57;;;15.10;;
17566;SDS011;8901;52.088;5.084;2023-12-20T09:20:40;17.77;;;14.57;;
17566;SDS011;8901;52.088;5.084;2023-12-20T09:23:07;17.20;;;15.40;;
17566;SDS011;8901;52.088;5.084;2023-12-20T09:25:34;15.73;;;13.53;;
17566;SDS011;8901;52.088;5.084;2023-12-20T09:28:02;16.93;;;15.23;;
17566;SDS011;8901;52.088;5.084;2023-12-20T09:30:29;16.07;;;14.57;;
17566;SDS011;8901;52.088;5.084;2023-12-20T09:32:58;17.53;;;15.83;;
17566;SDS011;8901;52.088;5.084;2023-12-20T09:35:25;20.37;;;18.47;;
17566;SDS011;8901;52.088;5.084;2023-12-20T09:37:52;21.93;;;19.80;;
17566;SDS011;8901;52.088;5.084;2023-12-20T09:40:19;19.97;;;18.03;;
17566;SDS011;8901;52.088;5.084;2023-12-20T09:42:47;18.57;;;16.80;;
17566;SDS011;8901;52.088;5.084;2023-12-20T09:45:15;20.30;;;18.17;;
17566;SDS011;8901;52.088;5.084;2023-12-20T09:47:45;16.07;;;14.57;;
17566;SDS011;8901;52.088;5.084;2023-12-20T09:50:14;18.43;;;16.10;;
17566;SDS011;8901;52.088;5.084;2023-12-20T09:52:41;19.30;;;16.47;;
17566;SDS011;8901;52.088;5.084;2023-12-20T09:55:09;20.43;;;18.50;;
17566;SDS011;8901;52.088;5.084;2023-12-20T09:57:36;18.70;;;16.93;;
17566;SDS011;8901;52.088;5.084;2023-12-20T10:00:03;22.17;;;19.87;;
17566;SDS011;8901;52.088;5.084;2023-12-20T10:02:31;20.23;;;18.23;;
17566;SDS011;8901;52.088;5.084;2023-12-20T10:04:59;18.73;;;16.90;;
17566;SDS011;8901;52.088;5.084;2023-12-20T10:07:29;19.67;;;17.50;;
17566;SDS011;8901;52.088;5.084;2023-12-20T10:09:56;20.33;;;16.13;;
17566;SDS011;8901;52.088;5.084;2023-12-20T10:12:23;18.37;;;14.40;;
17566;SDS011;8901;52.088;5.084;2023-12-20T10:14:50;20.90;;;16.33;;
17566;SDS011;8901;52.088;5.084;2023-12-20T10:17:18;21.10;;;17.00;;
17566;SDS011;8901;52.088;5.084;2023-12-20T10:19:45;15.83;;;14.17;;
17566;SDS011;8901;52.088;5.084;2023-12-20T10:22:12;15.53;;;14.10;;
17566;SDS011;8901;52.088;5.084;2023-12-20T10:24:41;20.50;;;14.13;;
17566;SDS011;8901;52.088;5.084;2023-12-20T10:27:08;16.10;;;14.20;;
17566;SDS011;8901;52.088;5.084;2023-12-20T10:29:35;17.20;;;13.90;;
17566;SDS011;8901;52.088;5.084;2023-12-20T10:32:21;20.43;;;15.63;;
17566;SDS011;8901;52.088;5.084;2023-12-20T10:34:49;18.10;;;16.03;;
17566;SDS011;8901;52.088;5.084;2023-12-20T10:37:16;16.47;;;14.93;;
17566;SDS011;8901;52.088;5.084;2023-12-20T10:39:45;16.13;;;14.70;;
17566;SDS011;8901;52.088;5.084;2023-12-20T10:42:15;14.10;;;12.80;;
17566;SDS011;8901;52.088;5.084;2023-12-20T10:44:42;16.43;;;12.80;;
17566;SDS011;8901;52.088;5.084;2023-12-20T10:47:10;18.20;;;14.47;;
17566;SDS011;8901;52.088;5.084;2023-12-20T10:49:38;20.43;;;14.47;;
17566;SDS011;8901;52.088;5.084;2023-12-20T10:52:06;14.83;;;11.33;;
17566;SDS011;8901;52.088;5.084;2023-12-20T10:54:33;12.43;;;10.70;;
17566;SDS011;8901;52.088;5.084;2023-12-20T10:57:01;14.40;;;12.10;;
17566;SDS011;8901;52.088;5.084;2023-12-20T10:59:30;12.93;;;11.63;;
17566;SDS011;8901;52.088;5.084;2023-12-20T11:01:59;16.73;;;12.43;;
17566;SDS011;8901;52.088;5.084;2023-12-20T11:04:31;12.90;;;11.80;;
17566;SDS011;8901;52.088;5.084;2023-12-20T11:07:03;17.03;;;12.57;;
17566;SDS011;8901;52.088;5.084;2023-12-20T11:09:33;15.07;;;13.47;;
17566;SDS011;8901;52.088;5.084;2023-12-20T11:12:04;16.07;;;12.30;;
17566;SDS011;8901;52.088;5.084;2023-12-20T11:14:39;14.60;;;11.80;;
17566;SDS011;8901;52.088;5.084;2023-12-20T11:17:08;13.90;;;12.53;;
17566;SDS011;8901;52.088;5.084;2023-12-20T11:19:36;21.37;;;13.20;;
17566;SDS011;8901;52.088;5.084;2023-12-20T11:22:04;13.00;;;11.73;;
17566;SDS011;8901;52.088;5.084;2023-12-20T11:24:32;16.20;;;12.23;;
17566;SDS011;8901;52.088;5.084;2023-12-20T11:27:04;12.50;;;10.50;;
17566;SDS011;8901;52.088;5.084;2023-12-20T11:29:32;19.47;;;10.97;;
17566;SDS011;8901;52.088;5.084;2023-12-20T11:32:00;11.47;;;10.23;;
17566;SDS011;8901;52.088;5.084;2023-12-20T11:34:28;14.60;;;11.77;;
17566;SDS011;8901;52.088;5.084;2023-12-20T11:36:58;12.33;;;9.40;;
17566;SDS011;8901;52.088;5.084;2023-12-20T11:39:26;19.07;;;10.80;;
17566;SDS011;8901;52.088;5.084;2023-12-20T11:41:54;11.43;;;10.23;;
17566;SDS011;8901;52.088;5.084;2023-12-20T11:44:24;24.73;;;11.20;;
17566;SDS011;8901;52.088;5.084;2023-12-20T11:46:52;14.23;;;11.03;;
17566;SDS011;8901;52.088;5.084;2023-12-20T11:49:22;12.93;;;11.20;;
17566;SDS011;8901;52.088;5.084;2023-12-20T11:51:50;13.33;;;10.33;;
17566;SDS011;8901;52.088;5.084;2023-12-20T11:54:17;13.37;;;11.50;;
17566;SDS011;8901;52.088;5.084;2023-12-20T11:56:45;15.90;;;11.17;;
17566;SDS011;8901;52.088;5.084;2023-12-20T11:59:13;16.70;;;12.23;;
17566;SDS011;8901;52.088;5.084;2023-12-20T12:01:41;14.30;;;11.97;;
17566;SDS011;8901;52.088;5.084;2023-12-20T12:04:14;14.87;;;10.00;;
17566;SDS011;8901;52.088;5.084;2023-12-20T12:06:42;12.87;;;11.50;;
17566;SDS011;8901;52.088;5.084;2023-12-20T12:09:09;15.13;;;11.80;;
17566;SDS011;8901;52.088;5.084;2023-12-20T12:11:37;13.23;;;11.50;;
17566;SDS011;8901;52.088;5.084;2023-12-20T12:14:04;17.10;;;12.17;;
17566;SDS011;8901;52.088;5.084;2023-12-20T12:16:31;14.63;;;11.83;;
17566;SDS011;8901;52.088;5.084;2023-12-20T12:18:59;16.07;;;13.10;;
17566;SDS011;8901;52.088;5.084;2023-12-20T12:21:26;12.43;;;10.37;;
17566;SDS011;8901;52.088;5.084;2023-12-20T12:23:54;13.10;;;11.80;;
17566;SDS011;8901;52.088;5.084;2023-12-20T12:26:21;13.90;;;12.23;;
17566;SDS011;8901;52.088;5.084;2023-12-20T12:28:51;13.67;;;11.37;;
17566;SDS011;8901;52.088;5.084;2023-12-20T12:31:19;12.80;;;10.83;;
17566;SDS011;8901;52.088;5.084;2023-12-20T12:33:46;20.70;;;12.13;;
17566;SDS011;8901;52.088;5.084;2023-12-20T12:36:14;17.77;;;11.93;;
17566;SDS011;8901;52.088;5.084;2023-12-20T12:38:43;17.60;;;11.03;;
17566;SDS011;8901;52.088;5.084;2023-12-20T12:41:12;12.97;;;11.43;;
17566;SDS011;8901;52.088;5.084;2023-12-20T12:43:40;14.73;;;12.03;;
17566;SDS011;8901;52.088;5.084;2023-12-20T12:46:07;17.67;;;11.60;;
17566;SDS011;8901;52.088;5.084;2023-12-20T12:48:35;15.33;;;10.83;;
17566;SDS011;8901;52.088;5.084;2023-12-20T12:51:02;16.33;;;9.83;;
17566;SDS011;8901;52.088;5.084;2023-12-20T12:53:30;15.37;;;10.57;;
17566;SDS011;8901;52.088;5.084;2023-12-20T12:55:57;13.50;;;11.80;;
17566;SDS011;8901;52.088;5.084;2023-12-20T12:58:24;17.33;;;10.70;;
17566;SDS011;8901;52.088;5.084;2023-12-20T13:00:52;16.33;;;11.80;;
17566;SDS011;8901;52.088;5.084;2023-12-20T13:03:19;19.87;;;11.63;;
17566;SDS011;8901;52.088;5.084;2023-12-20T13:05:46;13.97;;;10.50;;
17566;SDS011;8901;52.088;5.084;2023-12-20T13:08:13;12.87;;;10.57;;
17566;SDS011;8901;52.088;5.084;2023-12-20T13:10:42;17.70;;;11.77;;
17566;SDS011;8901;52.088;5.084;2023-12-20T13:13:09;17.57;;;11.87;;
17566;SDS011;8901;52.088;5.084;2023-12-20T13:15:37;12.87;;;11.60;;
17566;SDS011;8901;52.088;5.084;2023-12-20T13:18:04;13.00;;;10.97;;
17566;SDS011;8901;52.088;5.084;2023-12-20T13:20:32;15.97;;;13.00;;
17566;SDS011;8901;52.088;5.084;2023-12-20T13:22:59;15.20;;;12.53;;
17566;SDS011;8901;52.088;5.084;2023-12-20T13:25:26;15.73;;;12.53;;
17566;SDS011;8901;52.088;5.084;2023-12-20T13:27:55;13.90;;;11.40;;
17566;SDS011;8901;52.088;5.084;2023-12-20T13:30:22;17.10;;;12.13;;
17566;SDS011;8901;52.088;5.084;2023-12-20T13:32:49;13.97;;;12.57;;
17566;SDS011;8901;52.088;5.084;2023-12-20T13:35:16;19.80;;;11.60;;
17566;SDS011;8901;52.088;5.084;2023-12-20T13:37:43;14.30;;;12.73;;
17566;SDS011;8901;52.088;5.084;2023-12-20T13:40:11;17.67;;;12.93;;
17566;SDS011;8901;52.088;5.084;2023-12-20T13:42:38;12.27;;;11.00;;
17566;SDS011;8901;52.088;5.084;2023-12-20T13:45:08;15.27;;;13.73;;
17566;SDS011;8901;52.088;5.084;2023-12-20T13:47:35;14.23;;;12.77;;
17566;SDS011;8901;52.088;5.084;2023-12-20T13:50:02;13.87;;;12.20;;
17566;SDS011;8901;52.088;5.084;2023-12-20T13:52:30;15.73;;;12.30;;
17566;SDS011;8901;52.088;5.084;2023-12-20T13:54:57;14.47;;;13.07;;
17566;SDS011;8901;52.088;5.084;2023-12-20T13:57:24;15.03;;;13.73;;
17566;SDS011;8901;52.088;5.084;2023-12-20T13:59:53;19.00;;;14.57;;
17566;SDS011;8901;52.088;5.084;2023-12-20T14:02:23;14.10;;;12.77;;
17566;SDS011;8901;52.088;5.084;2023-12-20T14:04:51;13.77;;;12.40;;
17566;SDS011;8901;52.088;5.084;2023-12-20T14:07:19;13.43;;;12.17;;
17566;SDS011;8901;52.088;5.084;2023-12-20T14:09:46;16.00;;;13.00;;
17566;SDS011;8901;52.088;5.084;2023-12-20T14:12:13;14.87;;;13.27;;
17566;SDS011;8901;52.088;5.084;2023-12-20T14:14:41;15.20;;;13.70;;
17566;SDS011;8901;52.088;5.084;2023-12-20T14:17:09;16.37;;;14.33;;
17566;SDS011;8901;52.088;5.084;2023-12-20T14:19:38;15.80;;;12.53;;
17566;SDS011;8901;52.088;5.084;2023-12-20T14:22:05;14.40;;;12.60;;
17566;SDS011;8901;52.088;5.084;2023-12-20T14:24:32;17.83;;;15.93;;
17566;SDS011;8901;52.088;5.084;2023-12-20T14:26:59;16.20;;;14.53;;
17566;SDS011;8901;52.088;5.084;2023-12-20T14:29:27;14.57;;;13.27;;
17566;SDS011;8901;52.088;5.084;2023-12-20T14:31:54;13.23;;;11.93;;
17566;SDS011;8901;52.088;5.084;2023-12-20T14:34:22;15.33;;;14.00;;
17566;SDS011;8901;52.088;5.084;2023-12-20T14:36:51;15.40;;;14.00;;
17566;SDS011;8901;52.088;5.084;2023-12-20T14:39:18;15.70;;;13.23;;